Terminal Aerodrome Forecast
Issued by NWS Wakefield, VA

Home | Current Version | Previous Version | Text Only | Print | Product List | Glossary On
Versions: 1 2 3 4 5 6 7 8 9 10 11 12 13 14 15 16
676
FTUS41 KAKQ 281150 AAC
TAFRIC
TAF AMD
KRIC 281150Z 2812/2912 20007KT P6SM -SHRA VCTS SCT060CB BKN100
      TEMPO 2812/2813 20014G20KT
     FM281400 21005KT P6SM VCSH BKN060
     FM282000 23010KT 6SM -SHRA BKN060 BKN100
     FM290000 29005KT P6SM BKN100
     FM290700 34007KT P6SM SCT045=

USA.gov is the U.S. government's official web portal to all federal, state and local government web resources and services.